Time;durP1;ratioP1;P1;durP2;ratioP2;P2;SDS_P1;SDS_P2;PMS_P1;PMS_P2;Temp;Humidity;BMP_temperature;BMP_pressure;BME280_temperature;BME280_humidity;BME280_pressure;Samples;Min_cycle;Max_cycle;Signal;HPM_P1;HPM_P2
2022/06/28 00:00:06;;;;;;;7.68;1.85;;;;;;;16.06;76.52;100837.31;6124859;23;20002;-84
2022/06/28 00:02:31;;;;;;;11.98;1.90;;;;;;;15.90;77.22;100834.28;6124963;23;20425;-84
2022/06/28 00:04:56;;;;;;;13.02;1.85;;;;;;;15.87;77.86;100838.00;6125041;23;20085;-83
2022/06/28 00:07:22;;;;;;;8.95;2.25;;;;;;;15.92;77.71;100834.97;6124765;23;20010;-84
2022/06/28 00:09:47;;;;;;;12.90;2.10;;;;;;;15.93;77.53;100834.00;6124641;23;20007;-83
2022/06/28 00:12:13;;;;;;;11.93;2.20;;;;;;;15.96;77.44;100842.53;6124374;23;20006;-84
2022/06/28 00:17:22;;;;;;;9.18;2.25;;;;;;;15.82;77.69;100830.44;6124994;23;20338;-83
2022/06/28 00:19:47;;;;;;;8.68;1.73;;;;;;;15.83;78.45;100832.09;6124621;23;20415;-83
2022/06/28 00:22:13;;;;;;;9.73;1.90;;;;;;;15.85;78.28;100832.81;6124829;23;20080;-83
2022/06/28 00:24:38;;;;;;;14.85;3.20;;;;;;;15.75;79.11;100823.97;6124758;23;20295;-84
2022/06/28 00:27:04;;;;;;;8.48;2.05;;;;;;;15.57;79.51;100825.47;6123085;23;20056;-83
2022/06/28 00:29:29;;;;;;;11.70;2.60;;;;;;;15.61;80.73;100825.09;6124458;23;20026;-83
2022/06/28 00:31:55;;;;;;;12.02;2.63;;;;;;;15.48;80.94;100824.41;6124641;23;20006;-84
2022/06/28 00:34:20;;;;;;;5.32;1.63;;;;;;;15.49;82.33;100831.38;6124997;23;20002;-84
2022/06/28 00:36:45;;;;;;;8.90;2.10;;;;;;;15.49;81.16;100825.28;6124833;23;20006;-84
2022/06/28 00:39:11;;;;;;;6.10;1.98;;;;;;;15.46;80.70;100824.56;6124638;23;20421;-84
2022/06/28 00:41:37;;;;;;;10.55;2.28;;;;;;;15.34;81.55;100836.13;6124020;23;20057;-84
2022/06/28 00:44:03;;;;;;;10.07;2.33;;;;;;;15.33;83.47;100831.81;6122909;23;20067;-84
2022/06/28 00:46:30;;;;;;;10.05;1.70;;;;;;;15.39;81.15;100833.94;6124813;23;20058;-84
2022/06/28 00:48:56;;;;;;;8.05;2.58;;;;;;;15.27;83.98;100835.78;6124896;23;20028;-84
2022/06/28 00:51:24;;;;;;;9.90;2.25;;;;;;;15.27;83.33;100835.78;6124650;23;20056;-84
2022/06/28 00:53:50;;;;;;;6.90;1.45;;;;;;;15.19;85.27;100838.22;6123166;23;20009;-84
2022/06/28 00:56:15;;;;;;;13.50;3.22;;;;;;;15.18;84.81;100839.16;6124544;23;20013;-84
2022/06/28 00:58:40;;;;;;;15.30;2.05;;;;;;;15.21;86.19;100835.44;6124619;23;20081;-84
2022/06/28 01:01:06;;;;;;;12.98;2.38;;;;;;;15.21;86.03;100840.75;6125123;23;20002;-84
2022/06/28 01:03:31;;;;;;;17.17;3.30;;;;;;;15.29;85.68;100835.66;6124208;23;20092;-84
2022/06/28 01:05:57;;;;;;;13.98;1.92;;;;;;;15.36;85.12;100844.78;6124592;23;20006;-84
2022/06/28 01:08:23;;;;;;;14.40;2.05;;;;;;;15.37;85.50;100830.59;6124436;23;20006;-84
2022/06/28 01:10:49;;;;;;;16.40;2.53;;;;;;;15.44;84.90;100833.56;6124349;23;20012;-84
2022/06/28 01:13:14;;;;;;;7.40;1.83;;;;;;;15.41;85.08;100832.00;6120479;23;20010;-84
2022/06/28 01:15:41;;;;;;;8.02;2.00;;;;;;;15.44;85.54;100841.50;6124691;23;20489;-84
2022/06/28 01:18:08;;;;;;;8.45;1.77;;;;;;;15.43;84.87;100842.47;6124474;23;20006;-84
2022/06/28 01:20:33;;;;;;;12.27;1.92;;;;;;;15.31;85.99;100836.38;6122277;23;19998;-84
2022/06/28 01:23:00;;;;;;;10.35;1.98;;;;;;;15.29;86.35;100832.19;6124543;23;20013;-84
2022/06/28 01:25:26;;;;;;;18.30;3.20;;;;;;;15.15;87.56;100835.94;6124614;23;20060;-83
2022/06/28 01:27:52;;;;;;;12.20;2.63;;;;;;;15.23;86.96;100833.53;6124136;23;20029;-83
2022/06/28 01:30:17;;;;;;;11.60;2.22;;;;;;;15.20;87.61;100833.75;6122956;23;20010;-84
2022/06/28 01:32:43;;;;;;;12.10;2.45;;;;;;;15.27;87.33;100834.94;6124228;23;20005;-84
2022/06/28 01:35:09;;;;;;;18.08;2.30;;;;;;;15.24;88.43;100838.69;6124926;23;20033;-84
2022/06/28 01:37:35;;;;;;;8.85;2.20;;;;;;;15.33;87.55;100834.44;6122847;23;20034;-84
2022/06/28 01:40:03;;;;;;;15.95;2.55;;;;;;;15.31;88.15;100838.19;6124187;23;20076;-84
2022/06/28 01:42:29;;;;;;;13.00;2.38;;;;;;;15.28;88.36;100828.69;6124274;23;20488;-84
2022/06/28 01:44:56;;;;;;;11.50;2.00;;;;;;;15.31;88.92;100836.38;6124393;23;20040;-83
2022/06/28 01:47:26;;;;;;;8.32;1.85;;;;;;;15.27;89.43;100837.59;6124631;23;20014;-84
2022/06/28 01:49:52;;;;;;;9.50;1.90;;;;;;;15.20;90.25;100831.09;6123667;23;20013;-84
2022/06/28 01:52:17;;;;;;;5.00;1.38;;;;;;;15.31;89.62;100839.03;6124182;23;20005;-83
2022/06/28 01:54:43;;;;;;;10.25;1.77;;;;;;;15.37;90.64;100840.34;6125369;23;20070;-83
2022/06/28 01:57:09;;;;;;;13.00;2.13;;;;;;;15.50;89.80;100837.50;6126095;23;20001;-84
2022/06/28 01:59:37;;;;;;;11.55;1.95;;;;;;;15.56;90.50;100840.53;6126224;23;20009;-83
2022/06/28 02:02:03;;;;;;;18.90;3.03;;;;;;;15.51;90.52;100837.41;6126163;23;20010;-83
2022/06/28 02:04:29;;;;;;;8.32;1.67;;;;;;;15.56;89.50;100831.72;6124679;23;20006;-84
2022/06/28 02:06:56;;;;;;;18.92;3.35;;;;;;;15.52;89.53;100832.94;6125567;23;20009;-84
2022/06/28 02:09:22;;;;;;;15.48;2.22;;;;;;;15.45;89.69;100828.16;6124298;23;20033;-84
2022/06/28 02:11:48;;;;;;;7.65;1.73;;;;;;;15.46;89.94;100829.84;6126079;23;20001;-84
2022/06/28 02:14:13;;;;;;;10.88;1.67;;;;;;;15.34;90.41;100824.69;6124577;23;20037;-84
2022/06/28 02:16:38;;;;;;;8.68;2.20;;;;;;;15.42;91.33;100825.78;6125808;23;20436;-84
2022/06/28 02:19:04;;;;;;;14.07;2.55;;;;;;;15.44;91.94;100826.50;6126107;23;20413;-83
2022/06/28 02:21:38;;;;;;;10.93;1.90;;;;;;;15.42;95.06;100812.53;6125752;23;20137;-83
2022/06/28 02:24:05;;;;;;;8.68;2.50;;;;;;;15.52;93.73;100803.81;6125460;23;20448;-83
2022/06/28 02:26:32;;;;;;;10.65;1.90;;;;;;;15.57;93.71;100806.94;6125952;23;20072;-83
2022/06/28 02:28:59;;;;;;;14.50;3.33;;;;;;;15.51;93.48;100797.69;6125873;23;20030;-83
2022/06/28 02:31:24;;;;;;;9.75;1.77;;;;;;;15.44;93.34;100801.81;6125859;23;20006;-83
2022/06/28 02:33:50;;;;;;;12.60;2.67;;;;;;;15.39;93.11;100799.56;6126046;23;20052;-83
2022/06/28 02:41:44;;;;;;;10.40;2.45;;;;;;;15.32;92.92;100786.94;6125837;23;20017;-83
2022/06/28 02:44:10;;;;;;;7.28;1.67;;;;;;;15.24;92.71;100782.28;6125550;23;20010;-83
2022/06/28 02:46:36;;;;;;;11.90;2.05;;;;;;;15.18;93.16;100785.44;6125530;23;20010;-83
2022/06/28 02:49:01;;;;;;;8.40;2.22;;;;;;;15.14;93.59;100799.88;6125629;23;20006;-83
2022/06/28 02:51:27;;;;;;;11.57;2.53;;;;;;;15.06;93.04;100795.19;6125550;23;20002;-83
2022/06/28 02:53:53;;;;;;;9.98;2.45;;;;;;;15.00;92.88;100783.31;6125354;23;20010;-83
2022/06/28 02:56:19;;;;;;;8.38;2.55;;;;;;;15.06;93.43;100788.09;6125512;23;20012;-83
2022/06/28 02:58:44;;;;;;;12.02;2.72;;;;;;;14.98;94.69;100787.03;6125651;23;20049;-83
2022/06/28 03:01:10;;;;;;;18.10;2.78;;;;;;;14.98;95.77;100781.75;6125482;23;20006;-83
2022/06/28 03:03:35;;;;;;;11.32;2.15;;;;;;;14.95;95.18;100782.00;6125645;23;20328;-83
2022/06/28 03:06:01;;;;;;;15.55;3.40;;;;;;;14.85;96.73;100781.91;6125223;23;20417;-83
2022/06/28 03:08:26;;;;;;;13.57;2.65;;;;;;;14.85;96.58;100766.06;6125323;23;20010;-83
2022/06/28 03:10:51;;;;;;;11.88;2.20;;;;;;;14.88;97.54;100774.56;6125563;23;20006;-83
2022/06/28 03:13:17;;;;;;;16.33;3.08;;;;;;;14.87;98.70;100774.69;6125519;23;20010;-83
2022/06/28 03:15:42;;;;;;;9.85;2.28;;;;;;;14.89;99.72;100770.13;6125743;23;20210;-83
2022/06/28 03:18:07;;;;;;;14.75;1.85;;;;;;;14.90;98.81;100769.16;6125142;23;20006;-83
2022/06/28 03:20:33;;;;;;;7.88;2.08;;;;;;;14.87;100.00;100764.13;6125320;23;20089;-82
2022/06/28 03:22:58;;;;;;;17.95;1.65;;;;;;;15.04;99.40;100768.88;6125323;23;20130;-83
2022/06/28 03:25:24;;;;;;;11.77;2.58;;;;;;;15.07;99.92;100767.81;6125039;23;20085;-83
2022/06/28 03:27:49;;;;;;;14.52;2.83;;;;;;;15.14;99.85;100768.13;6125180;23;20077;-83
2022/06/28 03:30:15;;;;;;;20.42;3.78;;;;;;;15.16;100.00;100761.75;6125048;23;20306;-83
2022/06/28 03:32:40;;;;;;;11.10;1.98;;;;;;;15.13;100.00;100756.72;6125235;23;20073;-83
2022/06/28 03:35:07;;;;;;;15.38;2.65;;;;;;;15.11;100.00;100750.72;6123919;23;20084;-83
2022/06/28 03:37:33;;;;;;;9.55;1.95;;;;;;;15.26;100.00;100746.81;6125262;23;20006;-83
2022/06/28 03:39:58;;;;;;;12.85;3.17;;;;;;;15.31;100.00;100757.00;6124579;23;20006;-83
2022/06/28 03:42:24;;;;;;;15.15;2.75;;;;;;;15.30;100.00;100757.13;6125093;23;20001;-83
2022/06/28 03:44:50;;;;;;;11.68;2.63;;;;;;;15.21;100.00;100756.09;6124969;23;20429;-82
2022/06/28 03:47:15;;;;;;;25.70;2.88;;;;;;;15.14;100.00;100749.63;6125483;23;20005;-83
2022/06/28 03:49:40;;;;;;;16.08;2.30;;;;;;;15.22;100.00;100758.59;6124953;23;20307;-83
2022/06/28 03:52:07;;;;;;;18.98;2.55;;;;;;;15.21;100.00;100753.44;6124974;23;20002;-82
2022/06/28 03:54:33;;;;;;;15.80;2.35;;;;;;;15.24;100.00;100753.19;6123099;23;20089;-82
2022/06/28 03:56:58;;;;;;;18.38;2.58;;;;;;;15.01;100.00;100753.25;6125222;23;20073;-82
2022/06/28 03:59:24;;;;;;;18.48;2.92;;;;;;;15.14;100.00;100757.56;6124572;23;20006;-82
2022/06/28 04:01:49;;;;;;;18.05;2.40;;;;;;;15.22;100.00;100755.94;6124835;23;20009;-82
2022/06/28 04:04:14;;;;;;;10.30;1.80;;;;;;;15.17;100.00;100758.16;6124810;23;20010;-83
2022/06/28 04:06:40;;;;;;;11.00;2.13;;;;;;;15.07;100.00;100755.41;6124971;23;20021;-83
2022/06/28 04:09:05;;;;;;;13.70;2.53;;;;;;;15.04;100.00;100753.00;6124388;23;20001;-83
2022/06/28 04:11:30;;;;;;;20.05;2.88;;;;;;;15.07;100.00;100760.69;6124564;23;20006;-83
2022/06/28 04:13:56;;;;;;;10.30;2.25;;;;;;;15.03;100.00;100751.34;6125275;23;20013;-83
2022/06/28 04:16:23;;;;;;;6.78;1.52;;;;;;;14.97;100.00;100756.25;6124715;23;20006;-83
2022/06/28 04:18:49;;;;;;;11.82;2.83;;;;;;;15.00;100.00;100759.50;6124872;23;20008;-83
2022/06/28 04:21:17;;;;;;;11.52;1.90;;;;;;;15.02;100.00;100757.56;6124887;23;20433;-83
2022/06/28 04:23:43;;;;;;;13.90;2.70;;;;;;;15.03;100.00;100763.72;6124282;23;20376;-83
2022/06/28 04:26:09;;;;;;;12.38;2.38;;;;;;;15.14;99.83;100766.31;6124751;23;20006;-83
2022/06/28 04:28:35;;;;;;;9.30;1.70;;;;;;;15.14;99.47;100753.09;6124823;23;20433;-83
2022/06/28 04:31:01;;;;;;;9.73;1.88;;;;;;;15.13;100.00;100751.44;6124944;23;20057;-83
2022/06/28 04:33:26;;;;;;;8.45;1.52;;;;;;;15.18;100.00;100751.88;6124617;23;20010;-83
2022/06/28 04:35:52;;;;;;;10.77;2.28;;;;;;;15.25;99.30;100746.94;6124973;23;20012;-82
2022/06/28 04:38:18;;;;;;;7.63;2.45;;;;;;;15.26;99.85;100738.03;6124650;23;20002;-83
2022/06/28 04:40:43;;;;;;;9.13;2.33;;;;;;;15.34;98.99;100732.94;6124568;23;20006;-83
2022/06/28 04:43:09;;;;;;;14.52;2.53;;;;;;;15.34;98.91;100722.34;6124258;23;20006;-83
2022/06/28 04:45:34;;;;;;;13.88;2.50;;;;;;;15.40;99.14;100735.09;6124813;23;20456;-83
2022/06/28 04:47:59;;;;;;;10.02;1.90;;;;;;;15.43;98.93;100729.53;6122970;23;20333;-83
2022/06/28 04:50:25;;;;;;;6.65;2.10;;;;;;;15.42;98.76;100738.44;6124579;23;20013;-82
2022/06/28 04:52:50;;;;;;;13.48;2.30;;;;;;;15.47;98.54;100727.47;6124828;23;20029;-83
2022/06/28 04:55:16;;;;;;;11.05;2.28;;;;;;;15.51;98.02;100720.97;6124649;23;20480;-83
2022/06/28 04:57:42;;;;;;;14.40;1.95;;;;;;;15.53;98.80;100726.97;6124338;23;20009;-82
2022/06/28 05:00:08;;;;;;;15.75;2.45;;;;;;;15.58;99.19;100723.91;6124485;23;20002;-83
2022/06/28 05:02:36;;;;;;;11.68;1.63;;;;;;;15.55;99.80;100716.25;6124757;23;20009;-83
2022/06/28 05:05:02;;;;;;;14.45;2.92;;;;;;;15.75;99.30;100718.06;6124425;23;20013;-83
2022/06/28 05:07:28;;;;;;;17.98;3.67;;;;;;;15.78;100.00;100712.53;6122981;23;20445;-83
2022/06/28 05:09:54;;;;;;;17.77;2.60;;;;;;;15.49;100.00;100706.19;6124535;23;20006;-83
2022/06/28 05:12:19;;;;;;;11.10;2.25;;;;;;;15.24;100.00;100701.13;6124652;23;20054;-83
2022/06/28 05:14:44;;;;;;;16.48;2.95;;;;;;;15.39;100.00;100706.94;6124487;23;20417;-83
2022/06/28 05:17:10;;;;;;;9.77;2.05;;;;;;;15.62;100.00;100704.16;6124334;23;20006;-83
2022/06/28 05:19:35;;;;;;;17.05;2.45;;;;;;;15.73;100.00;100711.25;6123037;23;20010;-83
2022/06/28 05:22:01;;;;;;;17.77;2.40;;;;;;;15.85;100.00;100705.72;6124505;23;20012;-83
2022/06/28 05:24:26;;;;;;;17.15;2.55;;;;;;;15.84;100.00;100708.53;6124332;23;20009;-83
2022/06/28 05:26:52;;;;;;;16.13;3.22;;;;;;;15.77;100.00;100700.25;6124748;23;20044;-83
2022/06/28 05:29:17;;;;;;;14.32;2.90;;;;;;;15.67;100.00;100705.44;6125373;23;20428;-83
2022/06/28 05:31:42;;;;;;;13.07;2.63;;;;;;;15.54;100.00;100698.69;6125679;23;20002;-83
2022/06/28 05:34:08;;;;;;;16.10;2.55;;;;;;;15.75;100.00;100701.34;6125903;23;20006;-83
2022/06/28 05:36:33;;;;;;;9.65;1.88;;;;;;;15.90;100.00;100694.75;6124759;23;20441;-83
2022/06/28 05:38:59;;;;;;;16.50;2.90;;;;;;;15.86;100.00;100696.81;6126461;23;20002;-83
2022/06/28 05:41:24;;;;;;;20.10;2.75;;;;;;;15.97;100.00;100700.34;6126273;23;20348;-83
2022/06/28 05:43:50;;;;;;;22.10;2.85;;;;;;;16.48;100.00;100688.84;6126158;23;20013;-83
2022/06/28 05:46:15;;;;;;;25.67;3.20;;;;;;;16.50;100.00;100694.84;6125668;23;20041;-83
2022/06/28 05:48:40;;;;;;;14.25;2.63;;;;;;;16.64;100.00;100698.91;6123878;23;20089;-84
2022/06/28 05:51:06;;;;;;;14.02;2.15;;;;;;;16.81;100.00;100692.13;6126143;23;20001;-83
2022/06/28 05:53:31;;;;;;;11.50;1.98;;;;;;;17.16;97.55;100699.56;6125994;23;20451;-83
2022/06/28 05:55:57;;;;;;;20.17;2.53;;;;;;;16.68;100.00;100688.88;6124723;23;20322;-84
2022/06/28 05:58:22;;;;;;;16.95;2.67;;;;;;;16.91;99.35;100697.47;6125927;23;20073;-83
2022/06/28 06:00:49;;;;;;;15.30;3.00;;;;;;;17.23;97.14;100699.84;6125631;23;20114;-83
2022/06/28 06:03:15;;;;;;;12.10;2.80;;;;;;;17.70;93.55;100691.13;6124818;23;20024;-84
2022/06/28 06:05:40;;;;;;;19.17;2.83;;;;;;;17.68;93.49;100701.06;6148507;23;20481;-83
2022/06/28 06:08:05;;;;;;;11.13;3.15;;;;;;;17.69;92.18;100695.56;6125590;23;20092;-83
2022/06/28 06:10:31;;;;;;;16.90;2.03;;;;;;;17.57;92.66;100691.41;6125665;23;20006;-83
2022/06/28 06:12:56;;;;;;;16.83;2.67;;;;;;;17.57;93.59;100699.38;6125885;23;20133;-84
2022/06/28 06:15:22;;;;;;;16.90;3.03;;;;;;;17.55;94.42;100686.25;6125553;23;20071;-83
2022/06/28 06:17:47;;;;;;;18.35;2.88;;;;;;;17.21;95.63;100693.84;6122643;23;20015;-83
2022/06/28 06:20:13;;;;;;;11.95;2.33;;;;;;;17.70;93.11;100696.44;6122252;23;20033;-83
2022/06/28 06:22:38;;;;;;;14.98;3.42;;;;;;;18.04;90.94;100694.13;6143166;23;20417;-83
2022/06/28 06:25:05;;;;;;;8.63;1.67;;;;;;;18.04;89.94;100696.78;6142123;23;20010;-83
2022/06/28 06:27:31;;;;;;;12.65;2.50;;;;;;;18.55;86.70;100700.72;6119595;23;20399;-84
2022/06/28 06:29:56;;;;;;;12.73;2.10;;;;;;;19.15;82.78;100689.53;6120161;23;20040;-84
2022/06/28 06:32:21;;;;;;;11.68;1.67;;;;;;;19.61;78.46;100684.09;6118988;23;20381;-84
2022/06/28 06:34:47;;;;;;;12.73;2.05;;;;;;;20.17;73.81;100680.06;6142707;23;20377;-84
2022/06/28 06:37:12;;;;;;;11.98;3.08;;;;;;;20.20;71.76;100682.44;6119496;23;20014;-84
2022/06/28 06:39:37;;;;;;;15.10;2.72;;;;;;;20.28;70.20;100694.09;6119546;23;20006;-84
2022/06/28 06:42:03;;;;;;;14.95;1.98;;;;;;;20.63;68.83;100693.09;6119407;23;20009;-84
2022/06/28 06:44:28;;;;;;;9.57;2.53;;;;;;;22.20;62.20;100693.88;6119565;23;20010;-84
2022/06/28 06:46:55;;;;;;;12.85;2.10;;;;;;;23.89;53.59;100683.13;6118888;23;20056;-84
2022/06/28 06:49:20;;;;;;;12.35;1.90;;;;;;;23.13;55.09;100682.34;6119452;23;20009;-84
2022/06/28 06:51:47;;;;;;;11.85;2.13;;;;;;;24.39;51.32;100675.31;6120199;23;20010;-84
2022/06/28 06:54:14;;;;;;;9.02;2.15;;;;;;;26.78;44.80;100675.44;6119276;23;20540;-84
2022/06/28 06:56:40;;;;;;;10.02;1.45;;;;;;;28.78;39.33;100676.91;6119304;23;20508;-84
2022/06/28 06:59:07;;;;;;;9.40;1.88;;;;;;;27.57;41.76;100692.69;6117741;23;20014;-84
2022/06/28 07:01:33;;;;;;;9.88;1.98;;;;;;;27.26;40.93;100669.88;6118224;23;20010;-84
2022/06/28 07:03:59;;;;;;;8.48;1.70;;;;;;;26.98;41.31;100680.00;6123177;23;20076;-84
2022/06/28 07:06:24;;;;;;;6.60;1.80;;;;;;;27.03;41.34;100672.13;6125282;23;20010;-84
2022/06/28 07:08:51;;;;;;;7.68;1.42;;;;;;;26.59;42.45;100668.13;6125138;23;20397;-82
2022/06/28 07:11:16;;;;;;;12.02;1.98;;;;;;;27.20;41.15;100673.38;6125132;23;20002;-82
2022/06/28 07:13:42;;;;;;;14.55;1.95;;;;;;;25.44;43.48;100665.84;6125087;23;20013;-83
2022/06/28 07:16:07;;;;;;;12.10;2.25;;;;;;;25.94;43.20;100667.63;6124910;23;20005;-82
2022/06/28 07:18:33;;;;;;;10.90;1.67;;;;;;;26.54;42.47;100665.16;6125052;23;20001;-83
2022/06/28 07:20:59;;;;;;;11.38;2.40;;;;;;;24.26;45.34;100678.66;6122075;23;20008;-83
2022/06/28 07:23:24;;;;;;;13.32;1.73;;;;;;;23.05;49.06;100677.06;6124318;23;20006;-82
2022/06/28 07:25:49;;;;;;;11.80;2.17;;;;;;;22.44;51.97;100674.22;6125233;23;20002;-82
2022/06/28 07:28:15;;;;;;;9.93;2.22;;;;;;;22.22;52.94;100667.78;6125087;23;20009;-82
2022/06/28 07:30:40;;;;;;;7.50;1.40;;;;;;;21.82;54.25;100667.78;6125472;23;20447;-82
2022/06/28 07:33:06;;;;;;;7.85;2.00;;;;;;;22.13;54.34;100667.81;6125147;23;20009;-82
2022/06/28 07:35:31;;;;;;;11.23;2.05;;;;;;;21.69;55.94;100656.78;6125484;23;20006;-83
2022/06/28 07:37:56;;;;;;;11.15;2.15;;;;;;;20.96;59.04;100664.63;6125243;23;20002;-83
2022/06/28 07:40:22;;;;;;;9.07;2.00;;;;;;;20.52;60.98;100672.03;6123520;23;20002;-83
2022/06/28 07:42:47;;;;;;;14.32;2.40;;;;;;;20.45;61.58;100658.50;6124460;23;20005;-83
2022/06/28 07:45:14;;;;;;;12.77;2.35;;;;;;;20.84;60.63;100665.13;6125050;23;20014;-82
2022/06/28 07:47:39;;;;;;;12.65;2.03;;;;;;;21.24;60.10;100656.28;6125255;23;20002;-82
2022/06/28 07:52:49;;;;;;;9.80;2.08;;;;;;;20.78;60.97;100662.13;6124625;23;20463;-82
2022/06/28 07:55:14;;;;;;;13.93;1.80;;;;;;;20.62;62.04;100670.09;6124161;23;20142;-82
2022/06/28 07:57:40;;;;;;;10.45;1.75;;;;;;;20.40;60.71;100669.66;6124614;23;20006;-82
2022/06/28 08:00:07;;;;;;;12.68;2.08;;;;;;;20.04;61.63;100657.53;6124835;23;20008;-82
2022/06/28 08:02:32;;;;;;;9.50;1.88;;;;;;;20.47;60.50;100648.50;6124928;23;20009;-81
2022/06/28 08:04:58;;;;;;;18.50;2.85;;;;;;;20.14;60.56;100645.75;6124845;23;20014;-82
2022/06/28 08:07:23;;;;;;;17.60;2.42;;;;;;;20.25;60.07;100651.78;6124424;23;20017;-82
2022/06/28 08:09:49;;;;;;;12.93;2.22;;;;;;;20.37;59.88;100647.81;6124005;23;20006;-82
2022/06/28 08:12:15;;;;;;;13.27;3.22;;;;;;;20.46;58.84;100640.66;6124503;23;20032;-82
2022/06/28 08:14:41;;;;;;;14.93;2.65;;;;;;;20.24;58.91;100644.78;6123545;23;20369;-82
2022/06/28 08:17:07;;;;;;;8.07;1.63;;;;;;;19.84;59.98;100646.28;6123683;23;20121;-82
2022/06/28 08:19:33;;;;;;;14.80;2.00;;;;;;;20.32;59.06;100644.78;6123616;23;20009;-82
2022/06/28 08:21:59;;;;;;;14.13;2.13;;;;;;;20.02;58.60;100631.03;6123917;23;20010;-82
2022/06/28 08:24:25;;;;;;;13.32;1.75;;;;;;;20.00;58.94;100636.53;6122940;23;20049;-82
2022/06/28 08:26:50;;;;;;;8.82;1.50;;;;;;;19.54;60.16;100635.09;6124794;23;20329;-82
2022/06/28 08:29:16;;;;;;;7.07;1.58;;;;;;;20.05;59.54;100625.38;6124909;23;20002;-82
2022/06/28 08:31:43;;;;;;;13.85;2.05;;;;;;;20.51;57.09;100625.84;6124559;23;20006;-82
2022/06/28 08:34:08;;;;;;;18.10;2.55;;;;;;;20.55;56.28;100629.84;6121387;23;20006;-82
2022/06/28 08:36:34;;;;;;;7.18;1.40;;;;;;;21.26;54.88;100638.25;6123535;23;20002;-82
2022/06/28 08:39:00;;;;;;;9.32;1.33;;;;;;;21.20;53.63;100623.75;6122790;23;20473;-82
2022/06/28 08:41:27;;;;;;;11.43;2.35;;;;;;;21.73;52.41;100636.72;6122417;23;20006;-82
2022/06/28 08:43:54;;;;;;;8.52;1.88;;;;;;;21.37;52.40;100621.06;6123159;23;20380;-82
2022/06/28 08:46:20;;;;;;;13.50;2.88;;;;;;;21.66;50.95;100630.38;6124578;23;20034;-82
2022/06/28 08:48:51;;;;;;;9.48;1.70;;;;;;;22.49;49.54;100613.84;6122408;23;20341;-82
2022/06/28 08:51:17;;;;;;;12.98;1.95;;;;;;;21.64;51.97;100614.50;6124080;23;20070;-82
2022/06/28 08:53:46;;;;;;;7.40;1.38;;;;;;;22.67;50.43;100608.19;6122797;23;20040;-82
2022/06/28 08:56:13;;;;;;;10.80;1.70;;;;;;;22.58;48.68;100603.91;6123614;23;19998;-82
2022/06/28 08:58:42;;;;;;;7.28;1.23;;;;;;;23.12;48.06;100594.94;6123801;23;20002;-82
2022/06/28 09:01:10;;;;;;;11.43;1.63;;;;;;;22.11;49.61;100610.16;6123279;23;20010;-82
2022/06/28 09:03:37;;;;;;;15.95;1.75;;;;;;;24.52;45.35;100610.25;6123366;23;20002;-82
2022/06/28 09:06:03;;;;;;;10.18;1.65;;;;;;;27.21;40.86;100580.72;6123757;23;20006;-82
2022/06/28 09:08:29;;;;;;;6.85;1.60;;;;;;;26.56;39.72;100585.00;6125021;23;20006;-82
2022/06/28 09:10:54;;;;;;;7.55;1.73;;;;;;;25.80;40.01;100586.00;6126538;23;20016;-82
2022/06/28 09:13:20;;;;;;;9.23;1.48;;;;;;;26.45;39.28;100589.97;6148822;23;20013;-82
2022/06/28 09:15:51;;;;;;;7.68;1.30;;;;;;;25.55;40.95;100588.34;6126090;23;20033;-82
2022/06/28 09:18:19;;;;;;;4.38;1.20;;;;;;;25.71;38.48;100583.50;6125116;23;20321;-81
2022/06/28 09:20:45;;;;;;;7.00;1.50;;;;;;;23.82;42.08;100574.97;6125616;23;19998;-81
2022/06/28 09:23:23;;;;;;;7.55;1.35;;;;;;;24.05;42.20;100574.00;6124507;23;20418;-82
2022/06/28 09:25:48;;;;;;;10.52;1.60;;;;;;;23.18;43.92;100570.13;6126011;23;20333;-81
2022/06/28 09:28:22;;;;;;;6.47;2.03;;;;;;;23.34;44.84;100575.31;6125173;23;20009;-82
2022/06/28 09:30:48;;;;;;;7.13;1.27;;;;;;;23.80;43.66;100563.59;6124709;23;19998;-82
2022/06/28 09:33:27;;;;;;;10.27;1.70;;;;;;;23.38;44.12;100591.00;6125229;23;20016;-82
2022/06/28 09:35:53;;;;;;;6.82;1.60;;;;;;;23.35;44.29;100576.97;6126274;23;20006;-81
2022/06/28 09:38:38;;;;;;;10.82;1.98;;;;;;;23.98;42.19;100571.25;6124714;23;20253;-81
2022/06/28 09:41:03;;;;;;;6.72;1.42;;;;;;;23.67;42.67;100566.06;6125524;23;20472;-81
2022/06/28 09:43:35;;;;;;;5.15;1.00;;;;;;;23.96;42.63;100559.88;6124635;23;20002;-81
2022/06/28 09:46:04;;;;;;;8.88;1.27;;;;;;;23.82;43.13;100571.47;6125107;23;20615;-82
2022/06/28 09:48:36;;;;;;;6.65;1.55;;;;;;;24.05;43.06;100553.38;6124810;23;20121;-83
2022/06/28 09:51:02;;;;;;;9.40;1.60;;;;;;;22.86;44.60;100574.72;6125707;23;20006;-83
2022/06/28 09:53:30;;;;;;;9.90;1.60;;;;;;;22.96;44.67;100577.97;6124488;23;20002;-83
2022/06/28 09:56:03;;;;;;;11.30;2.20;;;;;;;22.44;46.39;100567.22;6124809;23;20396;-82
2022/06/28 09:58:30;;;;;;;6.57;1.20;;;;;;;24.83;44.11;100564.28;6124420;23;20021;-82
2022/06/28 10:00:56;;;;;;;11.80;1.67;;;;;;;24.45;42.45;100548.44;6122633;23;20006;-82
2022/06/28 10:03:21;;;;;;;11.68;1.73;;;;;;;24.45;42.23;100561.84;6124122;23;20006;-82
2022/06/28 10:05:47;;;;;;;4.88;1.25;;;;;;;25.56;40.23;100553.22;6125539;23;20002;-81
2022/06/28 10:08:12;;;;;;;7.38;2.10;;;;;;;25.51;40.42;100545.75;6124377;23;20136;-81
2022/06/28 10:10:40;;;;;;;8.13;1.90;;;;;;;26.31;38.22;100556.00;6125780;23;20037;-82
2022/06/28 10:16:08;;;;;;;7.70;1.55;;;;;;;24.53;40.13;100547.50;6124748;23;20029;-82
2022/06/28 10:18:34;;;;;;;8.93;1.30;;;;;;;25.55;39.94;100538.09;6124484;23;20006;-81
2022/06/28 10:21:00;;;;;;;3.92;1.67;;;;;;;24.12;41.11;100538.19;6123801;23;20077;-82
2022/06/28 10:23:27;;;;;;;7.15;1.40;;;;;;;24.81;39.97;100550.22;6123137;23;20022;-82
2022/06/28 10:26:07;;;;;;;6.75;1.35;;;;;;;23.94;42.22;100543.13;6124531;23;20006;-81
2022/06/28 10:28:48;;;;;;;7.85;1.77;;;;;;;24.43;40.98;100547.78;6124473;23;20014;-81
2022/06/28 10:31:33;;;;;;;5.22;1.15;;;;;;;24.07;41.15;100543.28;6123780;23;20010;-81
2022/06/28 10:34:03;;;;;;;6.68;1.52;;;;;;;25.06;40.37;100525.59;6123763;23;20012;-81
2022/06/28 10:36:41;;;;;;;8.48;1.30;;;;;;;23.86;42.65;100537.88;6124488;23;20235;-81
2022/06/28 10:39:06;;;;;;;8.43;1.77;;;;;;;23.95;42.86;100550.16;6123982;23;20425;-81
2022/06/28 10:41:43;;;;;;;8.52;1.88;;;;;;;24.24;42.00;100535.81;6124114;23;20009;-81
2022/06/28 10:44:12;;;;;;;6.15;1.70;;;;;;;24.07;43.03;100529.03;6124386;23;20040;-80
2022/06/28 10:46:39;;;;;;;6.13;1.65;;;;;;;23.34;43.36;100540.50;6123610;23;20081;-81
2022/06/28 10:49:08;;;;;;;9.10;1.42;;;;;;;23.31;44.03;100535.50;6124343;23;19998;-81
2022/06/28 10:51:36;;;;;;;6.55;1.08;;;;;;;23.55;42.58;100522.81;6124039;23;20013;-81
2022/06/28 10:54:08;;;;;;;7.20;1.10;;;;;;;24.01;43.41;100517.22;6123181;23;20032;-81
2022/06/28 10:56:42;;;;;;;4.18;1.20;;;;;;;23.97;43.39;100521.28;6122538;23;20460;-81
2022/06/28 10:59:12;;;;;;;7.07;1.20;;;;;;;24.25;42.45;100513.34;6124046;23;20425;-81
2022/06/28 11:01:41;;;;;;;8.55;1.10;;;;;;;24.59;41.95;100516.38;6124160;23;20413;-81
2022/06/28 11:04:28;;;;;;;7.15;1.55;;;;;;;24.76;41.00;100517.72;6124112;23;20002;-81
2022/06/28 11:06:57;;;;;;;9.93;1.77;;;;;;;25.86;39.68;100499.97;6122094;23;20062;-81
2022/06/28 11:09:47;;;;;;;4.95;1.13;;;;;;;24.81;40.79;100503.75;6124448;23;20333;-82
2022/06/28 11:12:22;;;;;;;10.90;1.65;;;;;;;24.40;41.73;100497.16;6123023;23;20484;-81
2022/06/28 11:14:57;;;;;;;7.82;1.27;;;;;;;26.39;39.62;100504.66;6122451;23;20081;-81
2022/06/28 11:17:51;;;;;;;5.72;1.13;;;;;;;26.70;38.30;100505.94;6124253;23;20009;-81
2022/06/28 11:20:21;;;;;;;7.28;1.70;;;;;;;25.47;39.84;100511.38;6124322;23;20033;-82
2022/06/28 11:22:49;;;;;;;6.97;1.23;;;;;;;23.86;42.33;100519.94;6123167;23;20006;-81
2022/06/28 11:25:17;;;;;;;9.38;2.20;;;;;;;23.92;42.81;100504.94;6123660;23;20013;-82
2022/06/28 11:27:56;;;;;;;6.60;1.27;;;;;;;24.89;40.51;100520.53;6122477;23;20105;-82
2022/06/28 11:30:26;;;;;;;8.65;1.17;;;;;;;24.90;40.72;100516.81;6121975;23;20012;-82